Terminal Aerodrome Forecast
Issued by NWS Kansas City/Pleasant Hill, MO

Home | Current Version | Previous Version | Text Only | Print | Product List | Glossary On
Versions: 1 2 3 4 5 6 7 8 9 10 11 12 13 14 15 16 17 18 19 20 21 22 23 24 25 26 27 28
000
FTUS43 KEAX 271137 CCA
TAFMCI
TAF COR
KMCI 271137Z 2712/2812 18006KT P6SM VCTS SCT025CB BKN035
      TEMPO 2712/2713 4SM -TSRA BKN025CB
     FM271500 19007KT P6SM SCT030
     FM272000 21009KT P6SM VCTS SCT030CB
     FM280100 14005KT P6SM FEW150=

USA.gov is the U.S. government's official web portal to all federal, state and local government web resources and services.